Time;durP1;ratioP1;P1;durP2;ratioP2;P2;SDS_P1;SDS_P2;PMS_P1;PMS_P2;Temp;Humidity;BMP_temperature;BMP_pressure;BME280_temperature;BME280_humidity;BME280_pressure;Samples;Min_cycle;Max_cycle;Signal;HPM_P1;HPM_P2
2022/04/14 00:01:41;;;;;;;16.87;7.97;;;12.20;99.90;;;;;;5053394;28;21013;-45
2022/04/14 00:04:08;;;;;;;13.93;9.50;;;12.10;99.90;;;;;;5048581;28;20211;-44
2022/04/14 00:06:35;;;;;;;13.70;8.13;;;12.10;99.90;;;;;;5055867;28;20191;-43
2022/04/14 00:09:04;;;;;;;15.83;9.50;;;12.10;99.90;;;;;;5057676;28;20207;-46
2022/04/14 00:11:31;;;;;;;17.13;9.17;;;12.00;99.90;;;;;;5051096;28;20225;-47
2022/04/14 00:13:57;;;;;;;17.23;8.80;;;12.10;99.90;;;;;;5054402;28;20654;-45
2022/04/14 00:16:24;;;;;;;15.43;8.90;;;12.10;99.90;;;;;;5052706;28;20200;-46
2022/04/14 00:18:51;;;;;;;19.97;8.97;;;12.10;99.90;;;;;;5062679;28;20198;-43
2022/04/14 00:21:18;;;;;;;16.90;8.47;;;12.00;99.90;;;;;;5047508;28;20226;-43
2022/04/14 00:23:45;;;;;;;17.73;9.37;;;12.00;99.90;;;;;;5050393;28;20207;-46
2022/04/14 00:26:14;;;;;;;13.33;9.37;;;12.10;99.90;;;;;;5054490;28;20676;-47
2022/04/14 00:28:40;;;;;;;14.77;9.27;;;12.10;99.90;;;;;;5051429;28;20195;-46
2022/04/14 00:31:08;;;;;;;16.37;9.97;;;12.00;99.90;;;;;;5054671;28;20302;-45
2022/04/14 00:33:35;;;;;;;13.03;8.83;;;12.00;99.90;;;;;;5050499;28;20183;-45
2022/04/14 00:36:01;;;;;;;14.60;9.73;;;12.00;99.90;;;;;;5052314;28;20561;-48
2022/04/14 00:38:28;;;;;;;16.83;10.63;;;12.00;99.90;;;;;;5051989;28;20211;-46
2022/04/14 00:40:55;;;;;;;18.77;10.27;;;12.00;99.90;;;;;;5062020;28;20230;-48
2022/04/14 00:43:31;;;;;;;16.90;10.57;;;12.00;99.90;;;;;;5059068;28;20219;-44
2022/04/14 00:46:00;;;;;;;17.37;9.80;;;12.00;99.90;;;;;;5053239;28;20199;-43
2022/04/14 00:48:27;;;;;;;18.90;10.57;;;12.00;99.90;;;;;;5052771;28;20281;-47
2022/04/14 00:50:54;;;;;;;17.73;10.57;;;12.00;99.90;;;;;;5051675;28;20229;-43
2022/04/14 00:53:22;;;;;;;18.43;11.47;;;12.00;99.90;;;;;;5052048;28;20196;-44
2022/04/14 00:55:49;;;;;;;17.70;11.00;;;12.00;99.90;;;;;;5051783;28;20209;-46
2022/04/14 00:58:15;;;;;;;14.57;10.13;;;12.00;99.90;;;;;;5053752;28;20673;-46
2022/04/14 01:00:44;;;;;;;17.23;10.17;;;12.00;99.90;;;;;;5048759;28;20361;-44
2022/04/14 01:03:11;;;;;;;17.80;10.13;;;12.10;99.90;;;;;;5053311;28;20310;-45
2022/04/14 01:05:38;;;;;;;15.00;10.17;;;12.10;99.90;;;;;;5038764;28;20199;-46
2022/04/14 01:08:06;;;;;;;12.87;9.93;;;12.10;99.90;;;;;;5050934;28;20211;-44
2022/04/14 01:10:35;;;;;;;15.00;10.13;;;12.10;99.90;;;;;;5039162;28;20223;-43
2022/04/14 01:13:02;;;;;;;15.87;9.53;;;12.10;99.90;;;;;;5064431;28;20187;-45
2022/04/14 01:15:29;;;;;;;17.83;9.57;;;12.10;99.90;;;;;;5058616;28;20603;-45
2022/04/14 01:17:57;;;;;;;16.10;9.13;;;12.10;99.90;;;;;;5058178;28;20683;-47
2022/04/14 01:20:24;;;;;;;14.97;9.30;;;12.10;99.90;;;;;;5052322;28;20275;-48
2022/04/14 01:22:56;;;;;;;16.33;10.27;;;12.10;99.90;;;;;;5044429;28;20210;-44
2022/04/14 01:25:24;;;;;;;14.83;9.63;;;12.10;99.90;;;;;;5051216;28;20245;-46
2022/04/14 01:27:51;;;;;;;16.30;10.00;;;12.10;99.90;;;;;;5049095;28;20580;-44
2022/04/14 01:30:18;;;;;;;11.67;9.50;;;12.10;99.90;;;;;;5053221;28;20199;-46
2022/04/14 01:32:44;;;;;;;13.50;9.43;;;12.10;99.90;;;;;;5046993;28;20911;-43
2022/04/14 01:35:12;;;;;;;18.20;10.57;;;12.10;99.90;;;;;;5051389;28;20203;-50
2022/04/14 01:37:38;;;;;;;12.43;9.47;;;12.10;99.90;;;;;;5045447;28;20206;-47
2022/04/14 01:40:07;;;;;;;16.90;10.83;;;12.00;99.90;;;;;;5054031;28;20195;-43
2022/04/14 01:42:35;;;;;;;18.07;9.97;;;12.00;99.90;;;;;;5041167;28;20321;-44
2022/04/14 01:45:03;;;;;;;15.30;9.40;;;12.00;99.90;;;;;;5057194;28;20210;-45
2022/04/14 01:47:29;;;;;;;14.67;9.60;;;12.00;99.90;;;;;;5052043;28;20203;-47
2022/04/14 01:49:56;;;;;;;14.80;9.37;;;12.00;99.90;;;;;;5049046;28;20263;-44
2022/04/14 01:52:23;;;;;;;13.47;10.17;;;12.00;99.90;;;;;;5039720;28;20752;-48
2022/04/14 01:54:50;;;;;;;14.17;9.83;;;12.00;99.90;;;;;;5061768;28;20190;-46
2022/04/14 01:57:17;;;;;;;17.27;9.67;;;12.00;99.90;;;;;;5047459;28;20199;-47
2022/04/14 01:59:45;;;;;;;12.53;9.43;;;12.00;99.90;;;;;;5057025;28;20929;-45
2022/04/14 02:02:12;;;;;;;13.17;9.13;;;12.00;99.90;;;;;;5051030;28;20234;-48
2022/04/14 02:04:38;;;;;;;14.93;9.20;;;12.00;99.90;;;;;;5045407;28;20999;-45
2022/04/14 02:07:06;;;;;;;19.10;9.87;;;12.00;99.90;;;;;;5045981;28;20199;-44
2022/04/14 02:09:33;;;;;;;15.77;9.53;;;12.00;99.90;;;;;;5042217;28;20313;-50
2022/04/14 02:12:00;;;;;;;15.57;10.80;;;11.90;99.90;;;;;;5050569;28;20226;-44
2022/04/14 02:14:26;;;;;;;15.63;10.37;;;11.90;99.90;;;;;;5049595;28;20198;-44
2022/04/14 02:16:55;;;;;;;16.07;10.90;;;11.90;99.90;;;;;;5055343;28;20194;-45
2022/04/14 02:19:21;;;;;;;18.17;11.20;;;11.90;99.90;;;;;;5047960;28;20203;-47
2022/04/14 02:21:48;;;;;;;22.27;11.20;;;11.90;99.90;;;;;;5047077;28;21038;-43
2022/04/14 02:24:15;;;;;;;22.87;12.23;;;11.90;99.90;;;;;;5041787;28;20214;-47
2022/04/14 02:26:42;;;;;;;20.70;11.33;;;11.90;99.90;;;;;;5051170;28;20187;-44
2022/04/14 02:29:09;;;;;;;19.67;11.17;;;11.90;99.90;;;;;;5047531;28;20222;-43
2022/04/14 02:31:36;;;;;;;19.33;11.80;;;11.90;99.90;;;;;;5054003;28;20211;-43
2022/04/14 02:34:04;;;;;;;16.90;11.73;;;11.80;99.90;;;;;;5054708;28;20526;-43
2022/04/14 02:36:30;;;;;;;17.83;12.27;;;11.80;99.90;;;;;;5046212;28;20203;-44
2022/04/14 02:38:57;;;;;;;20.27;12.47;;;11.80;99.90;;;;;;5041136;28;20213;-44
2022/04/14 02:41:24;;;;;;;17.60;11.53;;;11.80;99.90;;;;;;5052652;28;20758;-49
2022/04/14 02:43:51;;;;;;;19.20;12.27;;;11.80;99.90;;;;;;5045196;28;20723;-43
2022/04/14 02:46:18;;;;;;;20.20;12.70;;;11.80;99.90;;;;;;5045903;28;20199;-48
2022/04/14 02:48:45;;;;;;;25.07;13.73;;;11.80;99.90;;;;;;5051135;28;20230;-44
2022/04/14 02:51:13;;;;;;;21.30;12.63;;;11.80;99.90;;;;;;5047948;28;20276;-47
2022/04/14 02:53:40;;;;;;;17.33;11.80;;;11.80;99.90;;;;;;5041491;28;20183;-43
2022/04/14 02:56:06;;;;;;;17.20;11.90;;;11.80;99.90;;;;;;5051375;28;20206;-45
2022/04/14 02:58:33;;;;;;;23.33;13.77;;;11.70;99.90;;;;;;5046748;28;20297;-43
2022/04/14 03:01:00;;;;;;;21.57;13.57;;;11.70;99.90;;;;;;5051910;28;20221;-44
2022/04/14 03:03:28;;;;;;;22.10;13.53;;;11.70;99.90;;;;;;5058479;28;20599;-48
2022/04/14 03:05:55;;;;;;;22.27;13.30;;;11.80;99.90;;;;;;5046706;28;20196;-44
2022/04/14 03:08:23;;;;;;;19.83;12.93;;;11.70;99.90;;;;;;5040475;28;20195;-50
2022/04/14 03:10:50;;;;;;;18.70;12.57;;;11.70;99.90;;;;;;5057450;28;20221;-43
2022/04/14 03:13:20;;;;;;;21.77;13.53;;;11.70;99.90;;;;;;5049287;28;20196;-48
2022/04/14 03:15:49;;;;;;;19.43;13.33;;;11.70;99.90;;;;;;5058384;28;20593;-44
2022/04/14 03:18:16;;;;;;;23.20;13.33;;;11.70;99.90;;;;;;5046966;28;20569;-47
2022/04/14 03:20:43;;;;;;;23.23;13.97;;;11.60;99.90;;;;;;5044033;28;20211;-45
2022/04/14 03:23:11;;;;;;;33.93;20.90;;;11.60;99.90;;;;;;5048631;28;20222;-44
2022/04/14 03:25:39;;;;;;;26.10;18.07;;;11.60;99.90;;;;;;5037620;28;20298;-44
2022/04/14 03:28:06;;;;;;;26.60;16.67;;;11.60;99.90;;;;;;5049401;28;20202;-44
2022/04/14 03:30:33;;;;;;;26.37;16.07;;;11.60;99.90;;;;;;5048211;28;20237;-44
2022/04/14 03:33:00;;;;;;;24.87;15.60;;;11.60;99.90;;;;;;5043341;28;20199;-43
2022/04/14 03:35:27;;;;;;;25.53;16.13;;;11.60;99.90;;;;;;5054193;28;20669;-46
2022/04/14 03:37:53;;;;;;;22.87;15.83;;;11.60;99.90;;;;;;5048001;28;20207;-44
2022/04/14 03:40:20;;;;;;;23.70;16.17;;;11.60;99.90;;;;;;5033175;28;20257;-48
2022/04/14 03:42:48;;;;;;;26.60;15.30;;;11.50;99.90;;;;;;5053976;28;20187;-43
2022/04/14 03:45:15;;;;;;;25.77;16.00;;;11.50;99.90;;;;;;5055873;28;20191;-49
2022/04/14 03:47:42;;;;;;;23.17;14.80;;;11.50;99.90;;;;;;5049061;28;20202;-43
2022/04/14 03:50:09;;;;;;;28.60;17.13;;;11.50;99.90;;;;;;5051714;28;20202;-44
2022/04/14 03:52:36;;;;;;;35.47;19.67;;;11.50;99.90;;;;;;5047055;28;20223;-43
2022/04/14 03:55:03;;;;;;;33.00;18.13;;;11.50;99.90;;;;;;5049608;28;20195;-44
2022/04/14 03:57:29;;;;;;;28.67;17.70;;;11.40;99.90;;;;;;5042373;28;20210;-45
2022/04/14 03:59:57;;;;;;;27.27;17.00;;;11.50;99.90;;;;;;5055038;28;20211;-45
2022/04/14 04:02:24;;;;;;;40.13;19.60;;;11.50;99.90;;;;;;5055143;28;20696;-43
2022/04/14 04:04:50;;;;;;;34.87;19.43;;;11.40;99.90;;;;;;5050534;28;20203;-48
2022/04/14 04:07:17;;;;;;;32.17;17.93;;;11.40;99.90;;;;;;5056728;28;20199;-45
2022/04/14 04:09:44;;;;;;;28.83;18.73;;;11.40;99.90;;;;;;5050631;28;20214;-44
2022/04/14 04:12:11;;;;;;;31.77;17.87;;;11.40;99.90;;;;;;5048476;28;20247;-43
2022/04/14 04:14:38;;;;;;;32.17;17.57;;;11.40;99.90;;;;;;5052210;28;20275;-46
2022/04/14 04:17:06;;;;;;;27.97;17.43;;;11.40;99.90;;;;;;5053445;28;20282;-45
2022/04/14 04:19:33;;;;;;;31.93;18.17;;;11.40;99.90;;;;;;5047719;28;20218;-45
2022/04/14 04:22:00;;;;;;;33.53;18.93;;;11.40;99.90;;;;;;5053279;28;20235;-44
2022/04/14 04:24:27;;;;;;;25.30;16.80;;;11.40;99.90;;;;;;5061359;28;20210;-46
2022/04/14 04:26:54;;;;;;;34.60;17.63;;;11.40;99.90;;;;;;5040799;28;20656;-44
2022/04/14 04:29:21;;;;;;;29.57;16.90;;;11.40;99.90;;;;;;5059592;28;20195;-44
2022/04/14 04:31:48;;;;;;;25.53;17.03;;;11.40;99.90;;;;;;5046128;28;20218;-48
2022/04/14 04:34:17;;;;;;;25.53;17.30;;;11.40;99.90;;;;;;5062957;28;20226;-47
2022/04/14 04:36:44;;;;;;;30.20;17.30;;;11.40;99.90;;;;;;5046282;28;20644;-49
2022/04/14 04:39:10;;;;;;;29.83;18.57;;;11.40;99.90;;;;;;5054739;28;20206;-44
2022/04/14 04:41:37;;;;;;;33.40;19.80;;;11.30;99.90;;;;;;5041052;28;20786;-48
2022/04/14 04:44:05;;;;;;;33.63;18.17;;;11.40;99.90;;;;;;5052007;28;20214;-45
2022/04/14 04:46:32;;;;;;;29.53;18.50;;;11.40;99.90;;;;;;5060991;28;20667;-45
2022/04/14 04:48:59;;;;;;;32.77;19.43;;;11.40;99.90;;;;;;5056901;28;20203;-44
2022/04/14 04:51:27;;;;;;;34.67;18.43;;;11.40;99.90;;;;;;5052072;28;20232;-44
2022/04/14 04:53:54;;;;;;;32.27;18.00;;;11.40;99.90;;;;;;5057592;28;20188;-49
2022/04/14 04:56:20;;;;;;;27.87;17.17;;;11.40;99.90;;;;;;5055847;28;20207;-43
2022/04/14 04:58:48;;;;;;;25.63;16.00;;;11.40;99.90;;;;;;5043616;28;20195;-45
2022/04/14 05:01:15;;;;;;;30.97;18.60;;;11.30;99.90;;;;;;5060862;28;20740;-44
2022/04/14 05:03:42;;;;;;;25.90;16.07;;;11.30;99.90;;;;;;5053421;28;20219;-46
2022/04/14 05:06:09;;;;;;;26.93;17.50;;;11.40;99.90;;;;;;5053742;28;20206;-44
2022/04/14 05:08:37;;;;;;;30.50;17.30;;;11.40;99.90;;;;;;5044233;28;20222;-46
2022/04/14 05:11:04;;;;;;;30.50;17.73;;;11.40;99.90;;;;;;5055413;28;20863;-44
2022/04/14 05:13:31;;;;;;;30.10;18.73;;;11.40;99.90;;;;;;5044553;28;20229;-49
2022/04/14 05:15:57;;;;;;;31.83;18.67;;;11.40;99.90;;;;;;5052712;28;20195;-46
2022/04/14 05:18:24;;;;;;;28.77;17.17;;;11.40;99.90;;;;;;5055844;28;20849;-49
2022/04/14 05:20:51;;;;;;;28.87;17.53;;;11.40;99.90;;;;;;5049187;28;20273;-46
2022/04/14 05:23:17;;;;;;;31.07;18.20;;;11.40;99.90;;;;;;5047570;28;20207;-46
2022/04/14 05:25:46;;;;;;;29.47;18.63;;;11.40;99.90;;;;;;5053812;28;20211;-46
2022/04/14 05:28:13;;;;;;;31.67;19.30;;;11.40;99.90;;;;;;5057260;28;20229;-45
2022/04/14 05:30:40;;;;;;;35.60;20.20;;;11.40;99.90;;;;;;5040542;28;20242;-45
2022/04/14 05:33:10;;;;;;;33.40;19.20;;;11.50;99.90;;;;;;5056108;28;20281;-44
2022/04/14 05:35:38;;;;;;;31.77;19.37;;;11.50;99.90;;;;;;5052217;28;20274;-50
2022/04/14 05:38:06;;;;;;;33.30;19.70;;;11.50;99.90;;;;;;5049372;28;20211;-45
2022/04/14 05:40:35;;;;;;;32.77;19.63;;;11.50;99.90;;;;;;5058615;28;20302;-46
2022/04/14 05:43:03;;;;;;;35.40;19.63;;;11.50;99.90;;;;;;5059083;28;20277;-45
2022/04/14 05:45:30;;;;;;;31.67;19.90;;;11.50;99.90;;;;;;5037845;28;20219;-46
2022/04/14 05:47:56;;;;;;;31.20;19.40;;;11.60;99.90;;;;;;5060035;28;20187;-43
2022/04/14 05:50:23;;;;;;;29.50;19.40;;;11.60;99.90;;;;;;5046300;28;20944;-43
2022/04/14 05:52:49;;;;;;;32.70;19.63;;;11.60;99.90;;;;;;5053399;28;20210;-48
2022/04/14 05:55:18;;;;;;;34.90;20.47;;;11.60;99.90;;;;;;5050995;28;20203;-45
2022/04/14 05:57:44;;;;;;;36.40;19.40;;;11.60;99.90;;;;;;5047964;28;20217;-44
2022/04/14 06:00:14;;;;;;;37.57;20.80;;;11.60;99.90;;;;;;5048216;28;20214;-46
2022/04/14 06:02:41;;;;;;;35.73;20.97;;;11.60;99.90;;;;;;5045369;28;20197;-43
2022/04/14 06:05:09;;;;;;;45.57;22.40;;;11.70;99.90;;;;;;5051320;28;20219;-46
2022/04/14 06:07:36;;;;;;;32.87;20.60;;;11.70;99.90;;;;;;5051044;28;20207;-46
2022/04/14 06:10:03;;;;;;;38.10;22.00;;;11.70;99.90;;;;;;5051551;28;20203;-44
2022/04/14 06:12:30;;;;;;;35.70;20.70;;;11.70;99.90;;;;;;5051780;28;20241;-43
2022/04/14 06:14:56;;;;;;;37.93;22.30;;;11.80;99.90;;;;;;5045653;28;20213;-47
2022/04/14 06:17:24;;;;;;;31.97;19.23;;;11.80;99.90;;;;;;5056443;28;20192;-46
2022/04/14 06:19:51;;;;;;;35.60;20.83;;;11.80;99.90;;;;;;5054916;28;20213;-46
2022/04/14 06:22:18;;;;;;;27.53;18.57;;;11.80;99.90;;;;;;5051824;28;20586;-47
2022/04/14 06:24:44;;;;;;;31.87;20.07;;;11.90;99.90;;;;;;5044644;28;20244;-45
2022/04/14 06:27:11;;;;;;;32.27;19.83;;;11.90;99.90;;;;;;5056298;28;20256;-47
2022/04/14 06:29:38;;;;;;;35.93;20.00;;;11.90;99.90;;;;;;5053348;28;21676;-46
2022/04/14 06:32:05;;;;;;;28.50;17.97;;;11.90;99.90;;;;;;5042850;28;20230;-42
2022/04/14 06:34:33;;;;;;;25.67;17.27;;;11.90;99.90;;;;;;5048489;28;20197;-43
2022/04/14 06:37:00;;;;;;;30.27;18.87;;;11.90;99.90;;;;;;5058583;28;20262;-43
2022/04/14 06:39:26;;;;;;;34.47;20.50;;;12.00;99.90;;;;;;5041632;28;20215;-48
2022/04/14 06:41:53;;;;;;;34.83;19.53;;;12.00;99.90;;;;;;5051692;28;20254;-43
2022/04/14 06:44:20;;;;;;;24.70;17.73;;;12.00;99.90;;;;;;5043701;28;20214;-48
2022/04/14 06:46:47;;;;;;;26.83;17.63;;;12.00;99.90;;;;;;5045957;28;20297;-45
2022/04/14 06:49:14;;;;;;;28.93;18.93;;;12.00;99.90;;;;;;5054057;28;21064;-45
2022/04/14 06:51:42;;;;;;;27.77;17.93;;;12.10;99.90;;;;;;5057953;28;20214;-44
2022/04/14 06:54:11;;;;;;;27.13;18.33;;;12.10;99.90;;;;;;5049873;28;20207;-46
2022/04/14 06:56:37;;;;;;;26.63;18.30;;;12.10;99.90;;;;;;5053368;28;20202;-45
2022/04/14 06:59:04;;;;;;;34.27;17.47;;;12.20;99.90;;;;;;5055191;28;20224;-45
2022/04/14 07:01:30;;;;;;;33.90;20.43;;;12.20;99.90;;;;;;5036699;28;20226;-43
2022/04/14 07:03:58;;;;;;;33.83;19.97;;;12.20;99.90;;;;;;5057589;28;20198;-44
2022/04/14 07:06:24;;;;;;;30.20;19.90;;;12.20;99.90;;;;;;5051144;28;20917;-45
2022/04/14 07:08:52;;;;;;;26.83;19.43;;;12.20;99.90;;;;;;5044484;28;20199;-43
2022/04/14 07:11:20;;;;;;;32.80;21.10;;;12.20;99.90;;;;;;5041668;28;20616;-45
2022/04/14 07:13:47;;;;;;;31.73;21.27;;;12.20;99.90;;;;;;5054334;28;20201;-45
2022/04/14 07:16:13;;;;;;;32.53;21.03;;;12.20;99.90;;;;;;5054326;28;20259;-45
2022/04/14 07:18:40;;;;;;;30.93;21.37;;;12.20;99.90;;;;;;5042566;28;20207;-44
2022/04/14 07:21:07;;;;;;;32.37;22.90;;;12.30;99.90;;;;;;5047652;28;20218;-46
2022/04/14 07:23:34;;;;;;;35.50;22.53;;;12.30;99.90;;;;;;5054852;28;20198;-46
2022/04/14 07:26:02;;;;;;;33.60;22.13;;;12.30;99.90;;;;;;5050666;28;20309;-43
2022/04/14 07:28:29;;;;;;;28.97;21.27;;;12.30;99.90;;;;;;5050053;28;20202;-45
2022/04/14 07:30:56;;;;;;;31.67;21.23;;;12.40;99.90;;;;;;5064683;28;20696;-44
2022/04/14 07:33:23;;;;;;;33.47;19.13;;;12.30;99.90;;;;;;5034089;28;20201;-49
2022/04/14 07:35:52;;;;;;;35.60;21.67;;;12.30;99.90;;;;;;5055504;28;20218;-45
2022/04/14 07:38:19;;;;;;;31.60;21.33;;;12.30;99.90;;;;;;5056939;28;20726;-47
2022/04/14 07:40:45;;;;;;;29.37;22.17;;;12.30;99.90;;;;;;5057092;28;20229;-43
2022/04/14 07:43:14;;;;;;;32.37;21.47;;;12.30;99.90;;;;;;5053958;28;20715;-43
2022/04/14 07:45:42;;;;;;;32.97;21.30;;;12.40;99.90;;;;;;5049713;28;20211;-44
2022/04/14 07:48:09;;;;;;;28.27;21.40;;;12.40;99.90;;;;;;5046846;28;20303;-44
2022/04/14 07:50:36;;;;;;;30.37;22.00;;;12.50;99.90;;;;;;5042805;28;20276;-47
2022/04/14 07:53:03;;;;;;;31.87;22.10;;;12.60;99.90;;;;;;5051990;28;20199;-45
2022/04/14 07:55:31;;;;;;;29.00;20.97;;;12.60;99.90;;;;;;5050679;28;20245;-46
2022/04/14 07:58:00;;;;;;;31.67;20.40;;;12.60;99.90;;;;;;5046345;28;20963;-44
2022/04/14 08:00:28;;;;;;;26.73;20.07;;;12.60;99.90;;;;;;5059810;28;20245;-46
2022/04/14 08:02:56;;;;;;;30.03;20.70;;;12.70;99.90;;;;;;5057146;28;20922;-44
2022/04/14 08:05:27;;;;;;;33.33;22.77;;;12.70;99.90;;;;;;5051899;28;20222;-43
2022/04/14 08:07:54;;;;;;;30.37;21.07;;;12.80;99.90;;;;;;5052684;28;20198;-46
2022/04/14 08:10:20;;;;;;;28.10;20.53;;;12.80;99.90;;;;;;5056253;28;20531;-44
2022/04/14 08:12:48;;;;;;;30.77;21.27;;;12.80;99.90;;;;;;5052735;28;23500;-45
2022/04/14 08:15:14;;;;;;;27.13;20.20;;;12.80;99.90;;;;;;5062116;28;20560;-45
2022/04/14 08:17:44;;;;;;;29.87;19.87;;;12.90;99.90;;;;;;5052564;28;20207;-49
2022/04/14 08:20:13;;;;;;;31.10;21.27;;;12.90;99.90;;;;;;5047737;28;20548;-48
2022/04/14 08:22:45;;;;;;;28.63;20.77;;;12.90;99.90;;;;;;5054279;28;20198;-47
2022/04/14 08:25:13;;;;;;;28.33;19.00;;;12.90;99.90;;;;;;5056768;28;20215;-44
2022/04/14 08:27:40;;;;;;;28.00;19.17;;;12.90;99.90;;;;;;5055958;28;20676;-48
2022/04/14 08:30:09;;;;;;;27.83;18.53;;;12.80;99.90;;;;;;5048191;28;20231;-43
2022/04/14 08:32:36;;;;;;;31.00;18.87;;;12.70;99.90;;;;;;5054402;28;20294;-49
2022/04/14 08:35:06;;;;;;;27.23;18.97;;;12.70;99.90;;;;;;5043840;28;20191;-43
2022/04/14 08:37:34;;;;;;;26.53;18.57;;;12.70;99.90;;;;;;5056636;28;20665;-44
2022/04/14 08:40:01;;;;;;;25.87;18.77;;;12.70;99.90;;;;;;5058730;28;20198;-45
2022/04/14 08:42:39;;;;;;;25.23;17.43;;;12.80;99.90;;;;;;5055852;28;20325;-46
2022/04/14 08:45:08;;;;;;;27.87;18.63;;;12.90;99.90;;;;;;5042897;28;20254;-43
2022/04/14 08:47:36;;;;;;;24.47;17.43;;;12.90;99.90;;;;;;5053803;28;20594;-47
2022/04/14 08:50:06;;;;;;;26.13;18.77;;;12.90;99.90;;;;;;5048234;28;20214;-47
2022/04/14 08:52:35;;;;;;;21.50;16.57;;;13.00;99.90;;;;;;5055534;28;20233;-49
2022/04/14 08:55:04;;;;;;;20.97;16.57;;;13.00;99.90;;;;;;5059134;28;20191;-44
2022/04/14 08:57:32;;;;;;;24.40;16.30;;;13.20;99.90;;;;;;5047704;28;20625;-51
2022/04/14 09:00:00;;;;;;;22.77;17.13;;;13.40;99.90;;;;;;5049525;28;20255;-46
2022/04/14 09:02:28;;;;;;;25.43;16.53;;;13.40;99.90;;;;;;5054987;28;20309;-45
2022/04/14 09:04:56;;;;;;;22.83;16.83;;;13.40;99.90;;;;;;5037925;28;20370;-47
2022/04/14 09:07:26;;;;;;;25.97;17.30;;;13.50;99.90;;;;;;5055890;28;20206;-45
2022/04/14 09:09:53;;;;;;;23.00;16.57;;;13.50;99.90;;;;;;5043731;28;20191;-45
2022/04/14 09:12:21;;;;;;;19.27;15.37;;;13.60;99.90;;;;;;5054333;28;20210;-45
2022/04/14 09:14:49;;;;;;;20.63;14.83;;;13.60;99.90;;;;;;5044221;28;20210;-48
2022/04/14 09:17:16;;;;;;;19.77;14.90;;;13.60;99.90;;;;;;5055234;28;20226;-46
2022/04/14 09:19:43;;;;;;;23.70;16.43;;;13.60;99.90;;;;;;5047843;28;20203;-49
2022/04/14 09:22:11;;;;;;;21.90;15.67;;;13.60;99.90;;;;;;5051591;28;20222;-47
2022/04/14 09:24:44;;;;;;;23.57;15.97;;;13.60;99.90;;;;;;5056015;28;20202;-50
2022/04/14 09:27:23;;;;;;;23.00;15.23;;;13.60;99.90;;;;;;5066823;28;20187;-45
2022/04/14 09:29:50;;;;;;;21.53;16.37;;;13.60;99.90;;;;;;5052234;28;20206;-49
2022/04/14 09:32:33;;;;;;;22.37;16.07;;;13.60;99.90;;;;;;5050081;28;20219;-44
2022/04/14 09:35:01;;;;;;;22.83;16.03;;;13.60;99.90;;;;;;5046049;28;20595;-51
2022/04/14 09:37:28;;;;;;;21.03;15.83;;;13.60;99.90;;;;;;5049736;28;20202;-47
2022/04/14 09:39:59;;;;;;;21.27;15.07;;;13.80;99.90;;;;;;5052544;28;20221;-49
2022/04/14 09:42:28;;;;;;;20.40;15.10;;;13.80;99.90;;;;;;5053278;28;20293;-50
2022/04/14 09:44:55;;;;;;;19.03;14.73;;;13.80;99.90;;;;;;5055269;28;20203;-46
2022/04/14 09:47:43;;;;;;;22.17;15.20;;;13.90;99.90;;;;;;5049672;28;20210;-45
2022/04/14 09:50:25;;;;;;;24.90;14.23;;;14.00;99.90;;;;;;5048985;28;20300;-45
2022/04/14 09:53:07;;;;;;;18.37;13.73;;;14.00;99.90;;;;;;5043738;28;20203;-46
2022/04/14 09:55:36;;;;;;;16.00;13.37;;;14.00;99.90;;;;;;5054808;28;20197;-44
2022/04/14 09:58:09;;;;;;;17.80;12.80;;;14.00;99.90;;;;;;5051127;28;20210;-49
2022/04/14 10:00:37;;;;;;;15.47;12.60;;;13.90;99.90;;;;;;5056972;28;20210;-45
2022/04/14 10:03:12;;;;;;;14.60;13.00;;;13.90;99.90;;;;;;5045872;28;20660;-45
2022/04/14 10:05:39;;;;;;;18.87;13.13;;;13.90;99.90;;;;;;5050020;28;20587;-46
2022/04/14 10:08:08;;;;;;;20.20;13.13;;;13.80;99.90;;;;;;5044293;28;20855;-46
2022/04/14 10:10:37;;;;;;;18.20;12.93;;;13.90;99.90;;;;;;5051465;28;20250;-46
2022/04/14 10:13:05;;;;;;;16.67;12.07;;;13.90;99.90;;;;;;5051576;28;20202;-44
2022/04/14 10:15:34;;;;;;;15.60;12.13;;;14.10;99.90;;;;;;5049448;28;20191;-51
2022/04/14 10:18:04;;;;;;;13.90;11.40;;;14.20;99.90;;;;;;5037755;28;20206;-50
2022/04/14 10:20:31;;;;;;;14.07;11.40;;;14.20;99.90;;;;;;5049359;28;20199;-47
2022/04/14 10:22:59;;;;;;;12.27;10.97;;;14.30;99.90;;;;;;5043012;28;20206;-50
2022/04/14 10:25:26;;;;;;;14.50;11.97;;;14.40;99.90;;;;;;5058309;28;20590;-49
2022/04/14 10:27:56;;;;;;;14.17;11.07;;;14.30;99.90;;;;;;5051896;28;20202;-51
2022/04/14 10:30:24;;;;;;;13.33;11.43;;;14.40;99.90;;;;;;5052826;28;20202;-50
2022/04/14 10:32:55;;;;;;;13.57;11.77;;;14.50;99.90;;;;;;5043579;28;20191;-48
2022/04/14 10:35:23;;;;;;;13.10;10.07;;;14.60;99.90;;;;;;5038897;28;21036;-51
2022/04/14 10:37:53;;;;;;;13.73;10.97;;;14.80;99.90;;;;;;5055108;28;20668;-48
2022/04/14 10:40:21;;;;;;;15.03;11.07;;;14.90;99.90;;;;;;5042294;28;20222;-49
2022/04/14 10:42:53;;;;;;;12.53;10.17;;;15.10;99.90;;;;;;5050959;28;20570;-50
2022/04/14 10:45:23;;;;;;;16.47;10.00;;;15.20;99.90;;;;;;5053437;28;20218;-45
2022/04/14 10:47:58;;;;;;;9.20;8.20;;;15.50;99.90;;;;;;5056582;28;20202;-48
2022/04/14 10:50:26;;;;;;;9.60;8.63;;;15.50;99.90;;;;;;5049317;28;20208;-49
2022/04/14 10:53:08;;;;;;;10.43;9.10;;;15.40;99.90;;;;;;5055324;28;20215;-50
2022/04/14 10:55:36;;;;;;;8.97;7.93;;;15.50;99.90;;;;;;5043570;28;20206;-48
2022/04/14 10:58:03;;;;;;;9.30;7.50;;;15.50;99.90;;;;;;5043730;28;20217;-47
2022/04/14 11:00:38;;;;;;;9.47;7.47;;;15.70;99.90;;;;;;5052046;28;20941;-47
2022/04/14 11:03:07;;;;;;;8.70;7.73;;;15.70;99.90;;;;;;5048473;28;20253;-50
2022/04/14 11:05:44;;;;;;;8.53;7.63;;;15.80;99.90;;;;;;5045512;28;20684;-49
2022/04/14 11:08:25;;;;;;;8.30;6.80;;;15.90;99.90;;;;;;5046083;28;20199;-47
2022/04/14 11:11:12;;;;;;;8.43;7.50;;;15.90;99.90;;;;;;5052171;28;20303;-45
2022/04/14 11:14:07;;;;;;;10.07;7.20;;;15.90;99.90;;;;;;5061082;28;20712;-48
2022/04/14 11:16:43;;;;;;;8.10;7.00;;;16.00;99.90;;;;;;5064139;28;20206;-45
2022/04/14 11:19:31;;;;;;;9.10;7.40;;;16.10;99.90;;;;;;5043062;28;20191;-47
2022/04/14 11:22:04;;;;;;;7.43;6.60;;;16.20;99.90;;;;;;5047980;28;20238;-49
2022/04/14 11:24:49;;;;;;;8.43;6.70;;;16.10;99.90;;;;;;5056558;28;20206;-47
2022/04/14 11:27:17;;;;;;;7.67;6.97;;;16.10;99.90;;;;;;5040914;28;20221;-46
2022/04/14 11:29:46;;;;;;;8.57;6.60;;;16.20;99.90;;;;;;5049748;28;20302;-48
2022/04/14 11:32:16;;;;;;;7.77;7.07;;;16.40;99.90;;;;;;5054026;28;20244;-49
2022/04/14 11:34:43;;;;;;;6.87;5.97;;;16.40;99.90;;;;;;5060033;28;20679;-46
2022/04/14 11:37:39;;;;;;;6.47;5.73;;;16.30;99.90;;;;;;5052557;28;20199;-47
2022/04/14 11:40:15;;;;;;;10.13;6.13;;;16.10;99.90;;;;;;5054154;28;20898;-50
2022/04/14 11:43:04;;;;;;;6.70;6.00;;;16.20;99.90;;;;;;5046739;28;20249;-47
2022/04/14 11:45:31;;;;;;;7.97;6.23;;;16.20;99.90;;;;;;5058511;28;21035;-48
2022/04/14 11:48:02;;;;;;;6.20;5.60;;;16.30;99.90;;;;;;5062859;28;20244;-48
2022/04/14 11:50:29;;;;;;;6.10;4.97;;;16.20;99.90;;;;;;5051285;28;20252;-48
2022/04/14 11:52:56;;;;;;;6.93;5.27;;;16.10;99.90;;;;;;5049040;28;20210;-52
2022/04/14 11:55:36;;;;;;;6.60;5.07;;;16.00;99.90;;;;;;5060654;28;20222;-47
2022/04/14 11:58:05;;;;;;;8.07;6.40;;;16.00;99.90;;;;;;5046557;28;20540;-45
2022/04/14 12:00:42;;;;;;;10.23;6.37;;;15.90;99.90;;;;;;5050804;28;20218;-46
2022/04/14 12:03:10;;;;;;;7.30;6.20;;;16.00;99.90;;;;;;5056901;28;20301;-47
2022/04/14 12:05:37;;;;;;;7.80;6.13;;;15.90;99.90;;;;;;5051534;28;20202;-44
2022/04/14 12:08:09;;;;;;;5.93;5.30;;;15.90;99.90;;;;;;5051561;28;20742;-46
2022/04/14 12:10:36;;;;;;;6.80;5.30;;;15.80;99.90;;;;;;5058046;28;20242;-46
2022/04/14 12:13:07;;;;;;;5.93;5.43;;;15.80;99.90;;;;;;5039642;28;20275;-47
2022/04/14 12:15:34;;;;;;;5.97;5.47;;;15.80;99.90;;;;;;5056262;28;20206;-44
2022/04/14 12:18:06;;;;;;;5.73;5.13;;;15.80;99.90;;;;;;5051190;28;20199;-47
2022/04/14 12:20:37;;;;;;;6.67;5.80;;;15.80;99.90;;;;;;5055393;28;20245;-47
2022/04/14 12:23:07;;;;;;;6.27;4.77;;;15.80;99.90;;;;;;5042685;28;20668;-44
2022/04/14 12:25:34;;;;;;;5.83;5.20;;;15.80;99.90;;;;;;5059245;28;20555;-45
2022/04/14 12:28:01;;;;;;;5.47;4.97;;;15.80;99.90;;;;;;5038083;28;20199;-45
2022/04/14 12:30:30;;;;;;;6.97;5.50;;;15.80;99.90;;;;;;5055679;28;20194;-51
2022/04/14 12:33:02;;;;;;;7.10;4.60;;;15.70;99.90;;;;;;5051750;28;20199;-46
2022/04/14 12:35:32;;;;;;;5.93;4.70;;;15.70;99.90;;;;;;5055437;28;20537;-44
2022/04/14 12:38:13;;;;;;;5.87;4.67;;;15.80;99.90;;;;;;5052008;28;20578;-45